sensor_id;sensor_type;location;lat;lon;timestamp;P1;durP1;ratioP1;P2;durP2;ratioP2
76606;SDS011;65498;50.916;4.698;2023-03-23T00:02:26;6.97;;;2.37;;
76606;SDS011;65498;50.916;4.698;2023-03-23T00:04:57;6.72;;;2.12;;
76606;SDS011;65498;50.916;4.698;2023-03-23T00:07:26;4.90;;;1.80;;
76606;SDS011;65498;50.916;4.698;2023-03-23T00:09:54;7.50;;;2.80;;
76606;SDS011;65498;50.916;4.698;2023-03-23T00:12:23;5.25;;;2.00;;
76606;SDS011;65498;50.916;4.698;2023-03-23T00:14:54;5.20;;;1.80;;
76606;SDS011;65498;50.916;4.698;2023-03-23T00:17:22;7.37;;;2.30;;
76606;SDS011;65498;50.916;4.698;2023-03-23T00:19:51;4.97;;;1.93;;
76606;SDS011;65498;50.916;4.698;2023-03-23T00:22:18;5.50;;;2.12;;
76606;SDS011;65498;50.916;4.698;2023-03-23T00:24:47;6.95;;;2.17;;
76606;SDS011;65498;50.916;4.698;2023-03-23T00:27:17;5.87;;;2.40;;
76606;SDS011;65498;50.916;4.698;2023-03-23T00:29:46;5.72;;;2.37;;
76606;SDS011;65498;50.916;4.698;2023-03-23T00:32:17;7.85;;;2.15;;
76606;SDS011;65498;50.916;4.698;2023-03-23T00:34:46;4.92;;;1.77;;
76606;SDS011;65498;50.916;4.698;2023-03-23T00:37:15;7.47;;;2.27;;
76606;SDS011;65498;50.916;4.698;2023-03-23T00:39:43;5.83;;;2.10;;
76606;SDS011;65498;50.916;4.698;2023-03-23T00:42:16;6.97;;;2.00;;
76606;SDS011;65498;50.916;4.698;2023-03-23T00:44:42;5.53;;;2.30;;
76606;SDS011;65498;50.916;4.698;2023-03-23T00:47:10;7.58;;;2.17;;
76606;SDS011;65498;50.916;4.698;2023-03-23T00:49:38;5.97;;;2.20;;
76606;SDS011;65498;50.916;4.698;2023-03-23T00:52:06;6.05;;;1.80;;
76606;SDS011;65498;50.916;4.698;2023-03-23T00:54:34;7.62;;;2.00;;
76606;SDS011;65498;50.916;4.698;2023-03-23T00:57:04;7.08;;;2.10;;
76606;SDS011;65498;50.916;4.698;2023-03-23T00:59:32;4.83;;;1.90;;
76606;SDS011;65498;50.916;4.698;2023-03-23T01:02:00;6.40;;;2.10;;
76606;SDS011;65498;50.916;4.698;2023-03-23T01:04:27;5.03;;;1.90;;
76606;SDS011;65498;50.916;4.698;2023-03-23T01:06:57;4.50;;;1.65;;
76606;SDS011;65498;50.916;4.698;2023-03-23T01:09:45;6.50;;;2.30;;
76606;SDS011;65498;50.916;4.698;2023-03-23T01:12:14;4.50;;;1.90;;
76606;SDS011;65498;50.916;4.698;2023-03-23T01:14:41;4.83;;;1.82;;
76606;SDS011;65498;50.916;4.698;2023-03-23T01:17:09;4.55;;;1.92;;
76606;SDS011;65498;50.916;4.698;2023-03-23T01:19:36;7.12;;;1.90;;
76606;SDS011;65498;50.916;4.698;2023-03-23T01:22:05;11.05;;;4.20;;
76606;SDS011;65498;50.916;4.698;2023-03-23T01:24:33;6.75;;;2.10;;
76606;SDS011;65498;50.916;4.698;2023-03-23T01:27:01;6.05;;;2.25;;
76606;SDS011;65498;50.916;4.698;2023-03-23T01:29:30;5.30;;;1.98;;
76606;SDS011;65498;50.916;4.698;2023-03-23T01:31:57;4.80;;;1.92;;
76606;SDS011;65498;50.916;4.698;2023-03-23T01:34:25;4.80;;;1.72;;
76606;SDS011;65498;50.916;4.698;2023-03-23T01:36:53;4.60;;;1.95;;
76606;SDS011;65498;50.916;4.698;2023-03-23T01:39:21;4.80;;;2.02;;
76606;SDS011;65498;50.916;4.698;2023-03-23T01:41:48;4.45;;;1.67;;
76606;SDS011;65498;50.916;4.698;2023-03-23T01:46:46;8.93;;;3.02;;
76606;SDS011;65498;50.916;4.698;2023-03-23T01:49:19;11.20;;;3.15;;
76606;SDS011;65498;50.916;4.698;2023-03-23T01:51:48;8.33;;;2.35;;
76606;SDS011;65498;50.916;4.698;2023-03-23T01:54:18;9.28;;;2.05;;
76606;SDS011;65498;50.916;4.698;2023-03-23T01:56:50;8.95;;;2.30;;
76606;SDS011;65498;50.916;4.698;2023-03-23T01:59:22;10.72;;;2.58;;
76606;SDS011;65498;50.916;4.698;2023-03-23T02:01:51;9.13;;;2.65;;
76606;SDS011;65498;50.916;4.698;2023-03-23T02:06:49;10.23;;;2.75;;
76606;SDS011;65498;50.916;4.698;2023-03-23T02:09:22;5.90;;;2.40;;
76606;SDS011;65498;50.916;4.698;2023-03-23T02:11:51;8.65;;;2.25;;
76606;SDS011;65498;50.916;4.698;2023-03-23T02:14:20;8.05;;;3.17;;
76606;SDS011;65498;50.916;4.698;2023-03-23T02:33:38;5.65;;;2.30;;
76606;SDS011;65498;50.916;4.698;2023-03-23T02:36:16;5.55;;;2.10;;
76606;SDS011;65498;50.916;4.698;2023-03-23T02:38:47;6.12;;;2.10;;
76606;SDS011;65498;50.916;4.698;2023-03-23T02:41:36;5.77;;;2.07;;
76606;SDS011;65498;50.916;4.698;2023-03-23T02:44:04;5.92;;;2.12;;
76606;SDS011;65498;50.916;4.698;2023-03-23T02:46:33;7.53;;;2.42;;
76606;SDS011;65498;50.916;4.698;2023-03-23T02:49:03;5.10;;;2.30;;
76606;SDS011;65498;50.916;4.698;2023-03-23T02:51:33;9.13;;;3.58;;
76606;SDS011;65498;50.916;4.698;2023-03-23T02:56:31;5.42;;;2.20;;
76606;SDS011;65498;50.916;4.698;2023-03-23T02:59:01;5.37;;;2.10;;
76606;SDS011;65498;50.916;4.698;2023-03-23T03:04:11;5.55;;;2.12;;
76606;SDS011;65498;50.916;4.698;2023-03-23T03:06:46;6.00;;;2.40;;
76606;SDS011;65498;50.916;4.698;2023-03-23T03:09:31;5.83;;;1.98;;
76606;SDS011;65498;50.916;4.698;2023-03-23T03:12:02;6.15;;;2.10;;
76606;SDS011;65498;50.916;4.698;2023-03-23T03:14:31;6.15;;;2.40;;
76606;SDS011;65498;50.916;4.698;2023-03-23T03:17:10;7.12;;;2.15;;
76606;SDS011;65498;50.916;4.698;2023-03-23T03:19:48;5.47;;;2.10;;
76606;SDS011;65498;50.916;4.698;2023-03-23T03:22:18;5.92;;;1.87;;
76606;SDS011;65498;50.916;4.698;2023-03-23T03:24:47;5.22;;;1.85;;
76606;SDS011;65498;50.916;4.698;2023-03-23T03:27:18;5.62;;;1.92;;
76606;SDS011;65498;50.916;4.698;2023-03-23T03:29:49;6.28;;;2.35;;
76606;SDS011;65498;50.916;4.698;2023-03-23T03:32:24;6.97;;;2.50;;
76606;SDS011;65498;50.916;4.698;2023-03-23T03:34:53;6.72;;;2.40;;
76606;SDS011;65498;50.916;4.698;2023-03-23T03:37:21;6.08;;;2.00;;
76606;SDS011;65498;50.916;4.698;2023-03-23T03:39:48;5.12;;;2.25;;
76606;SDS011;65498;50.916;4.698;2023-03-23T03:42:16;8.10;;;2.60;;
76606;SDS011;65498;50.916;4.698;2023-03-23T03:44:44;5.80;;;2.02;;
76606;SDS011;65498;50.916;4.698;2023-03-23T03:47:12;5.30;;;2.08;;
76606;SDS011;65498;50.916;4.698;2023-03-23T03:49:39;5.22;;;1.72;;
76606;SDS011;65498;50.916;4.698;2023-03-23T03:52:07;5.33;;;2.05;;
76606;SDS011;65498;50.916;4.698;2023-03-23T03:54:35;4.72;;;1.60;;
76606;SDS011;65498;50.916;4.698;2023-03-23T03:57:03;6.58;;;1.80;;
76606;SDS011;65498;50.916;4.698;2023-03-23T03:59:30;6.95;;;2.37;;
76606;SDS011;65498;50.916;4.698;2023-03-23T04:01:58;5.78;;;1.98;;
76606;SDS011;65498;50.916;4.698;2023-03-23T04:04:25;5.72;;;2.25;;
76606;SDS011;65498;50.916;4.698;2023-03-23T04:06:54;6.05;;;1.70;;
76606;SDS011;65498;50.916;4.698;2023-03-23T04:09:23;5.40;;;1.90;;
76606;SDS011;65498;50.916;4.698;2023-03-23T04:11:52;5.22;;;1.95;;
76606;SDS011;65498;50.916;4.698;2023-03-23T04:14:19;6.25;;;2.08;;
76606;SDS011;65498;50.916;4.698;2023-03-23T04:16:47;5.53;;;2.10;;
76606;SDS011;65498;50.916;4.698;2023-03-23T04:19:16;4.87;;;1.90;;
76606;SDS011;65498;50.916;4.698;2023-03-23T04:21:44;5.08;;;1.92;;
76606;SDS011;65498;50.916;4.698;2023-03-23T04:24:13;6.65;;;1.75;;
76606;SDS011;65498;50.916;4.698;2023-03-23T04:26:41;5.17;;;1.90;;
76606;SDS011;65498;50.916;4.698;2023-03-23T04:29:10;9.03;;;2.03;;
76606;SDS011;65498;50.916;4.698;2023-03-23T04:31:38;6.33;;;2.15;;
76606;SDS011;65498;50.916;4.698;2023-03-23T04:34:08;5.10;;;1.70;;
76606;SDS011;65498;50.916;4.698;2023-03-23T04:36:37;4.62;;;1.70;;
76606;SDS011;65498;50.916;4.698;2023-03-23T04:39:05;5.95;;;1.80;;
76606;SDS011;65498;50.916;4.698;2023-03-23T04:41:34;5.37;;;1.90;;
76606;SDS011;65498;50.916;4.698;2023-03-23T04:44:02;7.92;;;2.12;;
76606;SDS011;65498;50.916;4.698;2023-03-23T04:46:31;5.17;;;1.77;;
76606;SDS011;65498;50.916;4.698;2023-03-23T04:48:59;4.75;;;2.12;;
76606;SDS011;65498;50.916;4.698;2023-03-23T04:51:30;5.97;;;1.80;;
76606;SDS011;65498;50.916;4.698;2023-03-23T04:53:58;5.08;;;1.90;;
76606;SDS011;65498;50.916;4.698;2023-03-23T04:56:25;5.85;;;2.00;;
76606;SDS011;65498;50.916;4.698;2023-03-23T04:58:53;6.85;;;2.00;;
76606;SDS011;65498;50.916;4.698;2023-03-23T05:01:20;4.58;;;1.70;;
76606;SDS011;65498;50.916;4.698;2023-03-23T05:03:48;4.65;;;1.65;;
76606;SDS011;65498;50.916;4.698;2023-03-23T05:06:15;5.65;;;1.67;;
76606;SDS011;65498;50.916;4.698;2023-03-23T05:08:43;6.60;;;1.95;;
76606;SDS011;65498;50.916;4.698;2023-03-23T05:11:10;5.87;;;1.62;;
76606;SDS011;65498;50.916;4.698;2023-03-23T05:13:38;5.47;;;1.80;;
76606;SDS011;65498;50.916;4.698;2023-03-23T05:16:06;7.12;;;2.20;;
76606;SDS011;65498;50.916;4.698;2023-03-23T05:18:34;5.62;;;1.80;;
76606;SDS011;65498;50.916;4.698;2023-03-23T05:21:02;4.90;;;1.72;;
76606;SDS011;65498;50.916;4.698;2023-03-23T05:23:30;6.00;;;1.82;;
76606;SDS011;65498;50.916;4.698;2023-03-23T05:25:59;6.87;;;2.10;;
76606;SDS011;65498;50.916;4.698;2023-03-23T05:28:28;4.90;;;1.62;;
76606;SDS011;65498;50.916;4.698;2023-03-23T05:30:56;7.60;;;2.12;;
76606;SDS011;65498;50.916;4.698;2023-03-23T05:33:24;9.65;;;1.95;;
76606;SDS011;65498;50.916;4.698;2023-03-23T05:35:51;4.75;;;1.50;;
76606;SDS011;65498;50.916;4.698;2023-03-23T05:38:19;8.00;;;1.90;;
76606;SDS011;65498;50.916;4.698;2023-03-23T05:40:48;4.95;;;1.75;;
76606;SDS011;65498;50.916;4.698;2023-03-23T05:43:15;5.45;;;1.70;;
76606;SDS011;65498;50.916;4.698;2023-03-23T05:45:43;5.83;;;1.72;;
76606;SDS011;65498;50.916;4.698;2023-03-23T05:48:11;6.35;;;1.80;;
76606;SDS011;65498;50.916;4.698;2023-03-23T05:50:38;4.78;;;1.75;;
76606;SDS011;65498;50.916;4.698;2023-03-23T05:53:06;7.33;;;1.72;;
76606;SDS011;65498;50.916;4.698;2023-03-23T05:55:34;4.87;;;1.47;;
76606;SDS011;65498;50.916;4.698;2023-03-23T05:58:01;5.45;;;1.50;;
76606;SDS011;65498;50.916;4.698;2023-03-23T06:00:29;4.00;;;1.40;;
76606;SDS011;65498;50.916;4.698;2023-03-23T06:02:58;7.10;;;2.50;;
76606;SDS011;65498;50.916;4.698;2023-03-23T06:05:26;4.80;;;1.40;;
76606;SDS011;65498;50.916;4.698;2023-03-23T06:07:54;3.98;;;1.60;;
76606;SDS011;65498;50.916;4.698;2023-03-23T06:10:22;6.00;;;1.57;;
76606;SDS011;65498;50.916;4.698;2023-03-23T06:12:50;4.72;;;1.50;;
76606;SDS011;65498;50.916;4.698;2023-03-23T06:15:18;7.65;;;2.10;;
76606;SDS011;65498;50.916;4.698;2023-03-23T06:17:45;5.30;;;1.70;;
76606;SDS011;65498;50.916;4.698;2023-03-23T06:20:13;5.42;;;1.47;;
76606;SDS011;65498;50.916;4.698;2023-03-23T06:22:41;5.83;;;1.42;;
76606;SDS011;65498;50.916;4.698;2023-03-23T06:25:09;5.78;;;1.75;;
76606;SDS011;65498;50.916;4.698;2023-03-23T06:27:37;4.93;;;1.50;;
76606;SDS011;65498;50.916;4.698;2023-03-23T06:30:05;4.12;;;1.40;;
76606;SDS011;65498;50.916;4.698;2023-03-23T06:32:33;5.65;;;1.75;;
76606;SDS011;65498;50.916;4.698;2023-03-23T06:35:01;6.47;;;1.65;;
76606;SDS011;65498;50.916;4.698;2023-03-23T06:37:29;6.70;;;1.50;;
76606;SDS011;65498;50.916;4.698;2023-03-23T06:39:57;5.25;;;1.20;;
76606;SDS011;65498;50.916;4.698;2023-03-23T06:42:25;4.87;;;1.50;;
76606;SDS011;65498;50.916;4.698;2023-03-23T06:44:52;5.85;;;1.55;;
76606;SDS011;65498;50.916;4.698;2023-03-23T06:47:22;4.87;;;1.47;;
76606;SDS011;65498;50.916;4.698;2023-03-23T06:49:50;4.42;;;1.42;;
76606;SDS011;65498;50.916;4.698;2023-03-23T06:52:17;5.65;;;1.62;;
76606;SDS011;65498;50.916;4.698;2023-03-23T06:54:45;5.10;;;1.50;;
76606;SDS011;65498;50.916;4.698;2023-03-23T06:57:12;4.55;;;1.25;;
76606;SDS011;65498;50.916;4.698;2023-03-23T06:59:40;6.30;;;1.87;;
76606;SDS011;65498;50.916;4.698;2023-03-23T07:02:09;4.33;;;1.45;;
76606;SDS011;65498;50.916;4.698;2023-03-23T07:04:37;5.53;;;1.52;;
76606;SDS011;65498;50.916;4.698;2023-03-23T07:07:07;5.00;;;1.62;;
76606;SDS011;65498;50.916;4.698;2023-03-23T07:09:36;4.05;;;1.30;;
76606;SDS011;65498;50.916;4.698;2023-03-23T07:12:04;6.22;;;1.72;;
76606;SDS011;65498;50.916;4.698;2023-03-23T07:14:33;6.30;;;1.87;;
76606;SDS011;65498;50.916;4.698;2023-03-23T07:17:01;7.70;;;1.82;;
76606;SDS011;65498;50.916;4.698;2023-03-23T07:19:30;5.50;;;1.60;;
76606;SDS011;65498;50.916;4.698;2023-03-23T07:21:58;6.33;;;1.60;;
76606;SDS011;65498;50.916;4.698;2023-03-23T07:24:25;6.15;;;2.00;;
76606;SDS011;65498;50.916;4.698;2023-03-23T07:26:53;6.17;;;1.92;;
76606;SDS011;65498;50.916;4.698;2023-03-23T07:29:21;7.50;;;1.95;;
76606;SDS011;65498;50.916;4.698;2023-03-23T07:31:49;6.17;;;1.75;;
76606;SDS011;65498;50.916;4.698;2023-03-23T07:34:18;5.92;;;1.72;;
76606;SDS011;65498;50.916;4.698;2023-03-23T07:36:46;5.53;;;1.65;;
76606;SDS011;65498;50.916;4.698;2023-03-23T07:39:14;4.53;;;1.50;;
76606;SDS011;65498;50.916;4.698;2023-03-23T07:41:42;4.45;;;1.57;;
76606;SDS011;65498;50.916;4.698;2023-03-23T07:44:09;5.25;;;1.45;;
76606;SDS011;65498;50.916;4.698;2023-03-23T07:46:37;5.67;;;1.62;;
76606;SDS011;65498;50.916;4.698;2023-03-23T07:49:04;5.50;;;1.65;;
76606;SDS011;65498;50.916;4.698;2023-03-23T07:51:32;5.72;;;1.50;;
76606;SDS011;65498;50.916;4.698;2023-03-23T07:54:00;6.83;;;2.35;;
76606;SDS011;65498;50.916;4.698;2023-03-23T07:56:33;4.40;;;1.37;;
76606;SDS011;65498;50.916;4.698;2023-03-23T07:59:01;5.22;;;1.60;;
76606;SDS011;65498;50.916;4.698;2023-03-23T08:01:32;5.65;;;1.32;;
76606;SDS011;65498;50.916;4.698;2023-03-23T08:04:00;6.58;;;1.22;;
76606;SDS011;65498;50.916;4.698;2023-03-23T08:06:27;8.40;;;1.32;;
76606;SDS011;65498;50.916;4.698;2023-03-23T08:08:57;9.43;;;1.57;;
76606;SDS011;65498;50.916;4.698;2023-03-23T08:11:26;4.87;;;1.20;;
76606;SDS011;65498;50.916;4.698;2023-03-23T08:13:53;4.53;;;1.45;;
76606;SDS011;65498;50.916;4.698;2023-03-23T08:16:22;5.72;;;1.50;;
76606;SDS011;65498;50.916;4.698;2023-03-23T08:18:50;4.65;;;1.50;;
76606;SDS011;65498;50.916;4.698;2023-03-23T08:21:17;7.20;;;1.45;;
76606;SDS011;65498;50.916;4.698;2023-03-23T08:23:46;6.28;;;1.45;;
76606;SDS011;65498;50.916;4.698;2023-03-23T08:26:14;6.17;;;1.72;;
76606;SDS011;65498;50.916;4.698;2023-03-23T08:28:42;8.23;;;1.82;;
76606;SDS011;65498;50.916;4.698;2023-03-23T08:31:11;7.65;;;1.32;;
76606;SDS011;65498;50.916;4.698;2023-03-23T08:33:40;5.30;;;1.50;;
76606;SDS011;65498;50.916;4.698;2023-03-23T08:36:08;6.80;;;1.70;;
76606;SDS011;65498;50.916;4.698;2023-03-23T08:38:36;6.83;;;1.75;;
76606;SDS011;65498;50.916;4.698;2023-03-23T08:41:04;7.25;;;2.35;;
76606;SDS011;65498;50.916;4.698;2023-03-23T08:43:33;5.12;;;1.45;;
76606;SDS011;65498;50.916;4.698;2023-03-23T08:46:01;4.78;;;1.40;;
76606;SDS011;65498;50.916;4.698;2023-03-23T08:48:31;9.00;;;1.70;;
76606;SDS011;65498;50.916;4.698;2023-03-23T08:51:00;3.40;;;1.05;;
76606;SDS011;65498;50.916;4.698;2023-03-23T08:53:28;4.03;;;1.20;;
76606;SDS011;65498;50.916;4.698;2023-03-23T08:56:02;5.58;;;1.50;;
76606;SDS011;65498;50.916;4.698;2023-03-23T08:58:34;4.10;;;1.30;;
76606;SDS011;65498;50.916;4.698;2023-03-23T09:01:03;3.50;;;1.32;;
76606;SDS011;65498;50.916;4.698;2023-03-23T09:03:32;5.17;;;1.50;;
76606;SDS011;65498;50.916;4.698;2023-03-23T09:06:05;4.42;;;1.15;;
76606;SDS011;65498;50.916;4.698;2023-03-23T09:08:34;4.12;;;1.30;;
76606;SDS011;65498;50.916;4.698;2023-03-23T09:11:03;4.37;;;1.45;;
76606;SDS011;65498;50.916;4.698;2023-03-23T09:13:33;4.62;;;1.20;;
76606;SDS011;65498;50.916;4.698;2023-03-23T09:16:01;3.87;;;1.27;;
76606;SDS011;65498;50.916;4.698;2023-03-23T09:18:30;5.65;;;1.20;;
76606;SDS011;65498;50.916;4.698;2023-03-23T09:20:59;4.65;;;1.30;;
76606;SDS011;65498;50.916;4.698;2023-03-23T09:23:27;3.95;;;1.10;;
76606;SDS011;65498;50.916;4.698;2023-03-23T09:25:55;3.45;;;1.00;;
76606;SDS011;65498;50.916;4.698;2023-03-23T09:28:23;4.25;;;1.20;;
76606;SDS011;65498;50.916;4.698;2023-03-23T09:30:50;8.40;;;1.50;;
76606;SDS011;65498;50.916;4.698;2023-03-23T09:33:20;5.25;;;1.75;;
76606;SDS011;65498;50.916;4.698;2023-03-23T09:35:48;5.28;;;0.98;;
76606;SDS011;65498;50.916;4.698;2023-03-23T09:38:15;5.53;;;1.17;;
76606;SDS011;65498;50.916;4.698;2023-03-23T09:40:48;5.17;;;1.30;;
76606;SDS011;65498;50.916;4.698;2023-03-23T09:45:51;4.60;;;1.50;;
76606;SDS011;65498;50.916;4.698;2023-03-23T09:48:52;4.92;;;1.42;;
76606;SDS011;65498;50.916;4.698;2023-03-23T09:51:41;3.87;;;1.27;;
76606;SDS011;65498;50.916;4.698;2023-03-23T09:54:18;3.90;;;1.02;;
76606;SDS011;65498;50.916;4.698;2023-03-23T09:56:54;6.17;;;1.32;;
76606;SDS011;65498;50.916;4.698;2023-03-23T09:59:46;5.07;;;1.30;;
76606;SDS011;65498;50.916;4.698;2023-03-23T10:04:47;4.25;;;1.20;;
76606;SDS011;65498;50.916;4.698;2023-03-23T10:07:20;3.42;;;1.30;;
76606;SDS011;65498;50.916;4.698;2023-03-23T10:09:49;3.40;;;1.05;;
76606;SDS011;65498;50.916;4.698;2023-03-23T10:17:42;2.98;;;0.90;;
76606;SDS011;65498;50.916;4.698;2023-03-23T10:25:42;5.10;;;1.02;;
76606;SDS011;65498;50.916;4.698;2023-03-23T10:28:21;4.40;;;1.05;;
76606;SDS011;65498;50.916;4.698;2023-03-23T10:30:52;4.00;;;1.00;;
76606;SDS011;65498;50.916;4.698;2023-03-23T10:36:03;4.37;;;1.10;;
76606;SDS011;65498;50.916;4.698;2023-03-23T10:38:44;6.53;;;1.15;;
76606;SDS011;65498;50.916;4.698;2023-03-23T10:41:19;6.83;;;1.10;;
76606;SDS011;65498;50.916;4.698;2023-03-23T10:43:45;4.62;;;1.15;;
76606;SDS011;65498;50.916;4.698;2023-03-23T10:48:56;3.55;;;1.27;;
76606;SDS011;65498;50.916;4.698;2023-03-23T10:51:27;4.33;;;1.30;;
76606;SDS011;65498;50.916;4.698;2023-03-23T10:53:56;4.15;;;1.20;;
76606;SDS011;65498;50.916;4.698;2023-03-23T10:56:27;4.53;;;2.37;;
76606;SDS011;65498;50.916;4.698;2023-03-23T10:58:57;3.02;;;1.00;;
76606;SDS011;65498;50.916;4.698;2023-03-23T11:01:31;3.58;;;1.17;;
76606;SDS011;65498;50.916;4.698;2023-03-23T11:04:01;3.90;;;1.20;;
76606;SDS011;65498;50.916;4.698;2023-03-23T11:06:30;2.80;;;1.10;;
76606;SDS011;65498;50.916;4.698;2023-03-23T11:09:03;5.15;;;1.30;;
76606;SDS011;65498;50.916;4.698;2023-03-23T11:11:43;4.05;;;1.10;;
76606;SDS011;65498;50.916;4.698;2023-03-23T11:14:19;3.92;;;0.93;;
76606;SDS011;65498;50.916;4.698;2023-03-23T11:19:52;5.25;;;1.20;;
76606;SDS011;65498;50.916;4.698;2023-03-23T11:22:26;3.12;;;0.90;;
76606;SDS011;65498;50.916;4.698;2023-03-23T11:24:59;4.45;;;1.20;;
76606;SDS011;65498;50.916;4.698;2023-03-23T11:27:27;3.45;;;1.05;;
76606;SDS011;65498;50.916;4.698;2023-03-23T11:29:57;3.15;;;0.90;;
76606;SDS011;65498;50.916;4.698;2023-03-23T11:32:32;2.08;;;0.95;;
76606;SDS011;65498;50.916;4.698;2023-03-23T11:37:46;4.53;;;1.20;;
76606;SDS011;65498;50.916;4.698;2023-03-23T11:42:47;4.87;;;1.37;;
76606;SDS011;65498;50.916;4.698;2023-03-23T11:45:32;4.95;;;1.15;;
76606;SDS011;65498;50.916;4.698;2023-03-23T11:48:12;4.85;;;1.37;;
76606;SDS011;65498;50.916;4.698;2023-03-23T11:50:45;3.77;;;1.17;;
76606;SDS011;65498;50.916;4.698;2023-03-23T11:54:09;4.22;;;1.35;;
76606;SDS011;65498;50.916;4.698;2023-03-23T11:58:44;4.03;;;1.30;;
76606;SDS011;65498;50.916;4.698;2023-03-23T12:01:16;5.83;;;1.80;;
76606;SDS011;65498;50.916;4.698;2023-03-23T12:09:52;4.95;;;1.27;;
76606;SDS011;65498;50.916;4.698;2023-03-23T12:12:40;4.28;;;1.30;;
76606;SDS011;65498;50.916;4.698;2023-03-23T12:15:11;6.12;;;1.67;;
76606;SDS011;65498;50.916;4.698;2023-03-23T12:20:42;6.40;;;1.87;;
76606;SDS011;65498;50.916;4.698;2023-03-23T12:23:25;5.92;;;1.90;;
76606;SDS011;65498;50.916;4.698;2023-03-23T12:31:32;6.35;;;1.70;;
76606;SDS011;65498;50.916;4.698;2023-03-23T12:37:07;7.45;;;1.80;;
76606;SDS011;65498;50.916;4.698;2023-03-23T12:45:14;5.90;;;1.70;;
76606;SDS011;65498;50.916;4.698;2023-03-23T12:47:43;5.00;;;1.75;;
76606;SDS011;65498;50.916;4.698;2023-03-23T12:58:17;5.40;;;1.67;;
76606;SDS011;65498;50.916;4.698;2023-03-23T13:00:54;4.72;;;1.55;;
76606;SDS011;65498;50.916;4.698;2023-03-23T13:03:38;6.97;;;1.90;;
76606;SDS011;65498;50.916;4.698;2023-03-23T13:08:58;6.80;;;2.00;;
76606;SDS011;65498;50.916;4.698;2023-03-23T13:11:36;5.72;;;1.90;;
76606;SDS011;65498;50.916;4.698;2023-03-23T13:22:30;6.15;;;2.00;;
76606;SDS011;65498;50.916;4.698;2023-03-23T13:25:24;6.12;;;2.12;;
76606;SDS011;65498;50.916;4.698;2023-03-23T13:28:00;5.83;;;1.95;;
76606;SDS011;65498;50.916;4.698;2023-03-23T13:30:28;6.62;;;2.10;;
76606;SDS011;65498;50.916;4.698;2023-03-23T13:33:06;6.05;;;1.80;;
76606;SDS011;65498;50.916;4.698;2023-03-23T13:35:36;6.05;;;1.80;;
76606;SDS011;65498;50.916;4.698;2023-03-23T13:38:25;5.80;;;2.00;;
76606;SDS011;65498;50.916;4.698;2023-03-23T13:40:55;5.75;;;1.72;;
76606;SDS011;65498;50.916;4.698;2023-03-23T13:43:27;6.22;;;2.12;;
76606;SDS011;65498;50.916;4.698;2023-03-23T13:48:47;7.08;;;1.87;;
76606;SDS011;65498;50.916;4.698;2023-03-23T13:51:32;5.83;;;1.90;;
76606;SDS011;65498;50.916;4.698;2023-03-23T13:54:06;6.45;;;2.17;;
76606;SDS011;65498;50.916;4.698;2023-03-23T13:56:52;6.72;;;2.08;;
76606;SDS011;65498;50.916;4.698;2023-03-23T14:02:26;6.72;;;2.27;;
76606;SDS011;65498;50.916;4.698;2023-03-23T14:04:44;6.72;;;2.37;;
76606;SDS011;65498;50.916;4.698;2023-03-23T14:10:20;5.95;;;1.90;;
76606;SDS011;65498;50.916;4.698;2023-03-23T14:12:49;5.80;;;2.17;;
76606;SDS011;65498;50.916;4.698;2023-03-23T14:15:19;6.08;;;2.12;;
76606;SDS011;65498;50.916;4.698;2023-03-23T14:17:47;7.45;;;2.20;;
76606;SDS011;65498;50.916;4.698;2023-03-23T14:20:26;7.40;;;2.20;;
76606;SDS011;65498;50.916;4.698;2023-03-23T14:22:56;6.22;;;1.92;;
76606;SDS011;65498;50.916;4.698;2023-03-23T14:25:26;8.18;;;2.10;;
76606;SDS011;65498;50.916;4.698;2023-03-23T14:27:54;5.50;;;2.15;;
76606;SDS011;65498;50.916;4.698;2023-03-23T14:30:22;10.18;;;3.55;;
76606;SDS011;65498;50.916;4.698;2023-03-23T14:32:52;6.45;;;2.20;;
76606;SDS011;65498;50.916;4.698;2023-03-23T14:35:26;6.15;;;2.08;;
76606;SDS011;65498;50.916;4.698;2023-03-23T14:37:55;6.20;;;2.08;;
76606;SDS011;65498;50.916;4.698;2023-03-23T14:40:26;6.27;;;2.00;;
76606;SDS011;65498;50.916;4.698;2023-03-23T14:42:54;7.92;;;2.20;;
76606;SDS011;65498;50.916;4.698;2023-03-23T14:45:24;6.80;;;2.35;;
76606;SDS011;65498;50.916;4.698;2023-03-23T14:47:53;6.08;;;1.80;;
76606;SDS011;65498;50.916;4.698;2023-03-23T14:50:27;7.90;;;2.40;;
76606;SDS011;65498;50.916;4.698;2023-03-23T14:53:03;5.83;;;2.02;;
76606;SDS011;65498;50.916;4.698;2023-03-23T14:55:30;8.23;;;2.20;;
76606;SDS011;65498;50.916;4.698;2023-03-23T14:58:08;6.08;;;2.10;;
76606;SDS011;65498;50.916;4.698;2023-03-23T15:00:49;7.05;;;2.77;;
76606;SDS011;65498;50.916;4.698;2023-03-23T15:03:15;6.90;;;2.10;;
76606;SDS011;65498;50.916;4.698;2023-03-23T15:05:50;5.05;;;1.57;;
76606;SDS011;65498;50.916;4.698;2023-03-23T15:08:17;6.12;;;1.92;;
76606;SDS011;65498;50.916;4.698;2023-03-23T15:11:30;7.30;;;1.85;;
76606;SDS011;65498;50.916;4.698;2023-03-23T15:13:19;10.05;;;2.77;;
76606;SDS011;65498;50.916;4.698;2023-03-23T15:15:47;8.13;;;2.35;;
76606;SDS011;65498;50.916;4.698;2023-03-23T15:18:27;6.55;;;2.10;;
76606;SDS011;65498;50.916;4.698;2023-03-23T15:20:58;7.70;;;2.10;;
76606;SDS011;65498;50.916;4.698;2023-03-23T15:23:44;8.38;;;2.10;;
76606;SDS011;65498;50.916;4.698;2023-03-23T15:26:21;6.80;;;1.80;;
76606;SDS011;65498;50.916;4.698;2023-03-23T15:31:47;8.33;;;1.95;;
76606;SDS011;65498;50.916;4.698;2023-03-23T15:34:28;6.22;;;1.85;;
76606;SDS011;65498;50.916;4.698;2023-03-23T15:37:03;7.47;;;1.98;;
76606;SDS011;65498;50.916;4.698;2023-03-23T15:39:33;6.62;;;1.80;;
76606;SDS011;65498;50.916;4.698;2023-03-23T15:42:00;7.78;;;1.65;;
76606;SDS011;65498;50.916;4.698;2023-03-23T15:44:33;6.42;;;1.70;;
76606;SDS011;65498;50.916;4.698;2023-03-23T15:47:10;5.92;;;1.87;;
76606;SDS011;65498;50.916;4.698;2023-03-23T15:49:44;6.55;;;1.80;;
76606;SDS011;65498;50.916;4.698;2023-03-23T15:52:12;5.25;;;2.05;;
76606;SDS011;65498;50.916;4.698;2023-03-23T15:54:47;7.20;;;2.08;;
76606;SDS011;65498;50.916;4.698;2023-03-23T15:57:15;6.05;;;1.95;;
76606;SDS011;65498;50.916;4.698;2023-03-23T15:59:43;7.28;;;2.33;;
76606;SDS011;65498;50.916;4.698;2023-03-23T16:02:14;7.67;;;2.10;;
76606;SDS011;65498;50.916;4.698;2023-03-23T16:04:41;7.95;;;1.87;;
76606;SDS011;65498;50.916;4.698;2023-03-23T16:07:09;6.25;;;1.95;;
76606;SDS011;65498;50.916;4.698;2023-03-23T16:09:38;6.55;;;2.20;;
76606;SDS011;65498;50.916;4.698;2023-03-23T16:12:11;7.78;;;2.10;;
76606;SDS011;65498;50.916;4.698;2023-03-23T16:14:39;7.50;;;2.20;;
76606;SDS011;65498;50.916;4.698;2023-03-23T16:17:09;7.72;;;2.00;;
76606;SDS011;65498;50.916;4.698;2023-03-23T16:19:38;8.30;;;2.22;;
76606;SDS011;65498;50.916;4.698;2023-03-23T16:22:07;6.37;;;2.08;;
76606;SDS011;65498;50.916;4.698;2023-03-23T16:24:35;6.47;;;2.00;;
76606;SDS011;65498;50.916;4.698;2023-03-23T16:27:03;6.92;;;2.17;;
76606;SDS011;65498;50.916;4.698;2023-03-23T16:29:31;7.78;;;2.47;;
76606;SDS011;65498;50.916;4.698;2023-03-23T16:31:59;7.03;;;2.17;;
76606;SDS011;65498;50.916;4.698;2023-03-23T16:34:26;5.47;;;1.75;;
76606;SDS011;65498;50.916;4.698;2023-03-23T16:36:56;7.10;;;2.00;;
76606;SDS011;65498;50.916;4.698;2023-03-23T16:39:23;6.92;;;2.10;;
76606;SDS011;65498;50.916;4.698;2023-03-23T16:41:51;5.37;;;1.70;;
76606;SDS011;65498;50.916;4.698;2023-03-23T16:44:19;7.97;;;2.20;;
76606;SDS011;65498;50.916;4.698;2023-03-23T16:46:46;7.33;;;2.00;;
76606;SDS011;65498;50.916;4.698;2023-03-23T16:49:14;6.05;;;1.80;;
76606;SDS011;65498;50.916;4.698;2023-03-23T16:51:41;7.53;;;2.72;;
76606;SDS011;65498;50.916;4.698;2023-03-23T16:54:09;8.73;;;2.02;;
76606;SDS011;65498;50.916;4.698;2023-03-23T16:56:37;8.80;;;2.00;;
76606;SDS011;65498;50.916;4.698;2023-03-23T16:59:04;6.53;;;2.05;;
76606;SDS011;65498;50.916;4.698;2023-03-23T17:01:32;7.03;;;1.95;;